Main page
METAR-TAF:

METAR-TAF

Airports :

Ruben Berta International Airport

Uruguaiana, Rio Grande do Sul, Brazil

latitude: 29-47S, longitude: 057-02W, elevation: 74 m

METAR: missing

Time: 12:15 (15:15 UTC)

Forecast

The report was made 6 hours and 15 minutes ago, at 09:00 UTC
Forecast valid from 01 at 12 UTC to 01 at 24 UTC
Wind 6 kt from the South/Southeast
Visibility: 3000 m
mist
Becoming
from 01 at 13 UTC to 01 at 15 UTC
Visibility 10 km or more
no clouds below 1500 m and no cumulonimbus

TAF: SBUG 010900Z 0112/0124 15006KT 3000 BR NSC TX24/0117Z TN17/0123Z BECMG 0113/0115 CAVOK RMK PFR

Weather observations and forecasts of more than 4000 airports (METAR and TAF reports).

The available stations are represented by yellow and red dots on the map.

Hover mouse over dot to see the name of the station.

Then click to see weather observations and forecasts.

To change the map : click on the green buttons with a black cross to zoom in, on the green button with a dash to zoom out, or on the green arrows for adjacent maps.


METAR-TAF: